Airfield :
LOGIN :

Register | Disclaimer

   EN    FR    IT 

 










Legend :    VFR   Marginal VFR   IFR   Intensive IFR   Very Intensive IFR
Visi :
Ceiling :
>= 8 km
>= 3000ft
5 to 8 km
1000 to 3000 ft
1500m to 5 km
500 to 1000 ft
800 to 1500m
200 to 500 ft
< 800m
< 200 ft
Symbols :   Thunderstorms  Fog  Heavy snow  Heavy precipitations  Wind > 20 kt
SIGMETs :     Misc.  Thunderstorms  Icing  Turbulence  Mountain Waves  Volcanic Ashes






- Airport Elevation : 364 ft
- IATA code : FRA


EDDF - Frankfurt Int.

CURRENT METAR :
  • 261150Z 21008KT 9999 FEW008 OVC014 01/M00 Q1032 BECMG OVC015

EXPIRED METARs :
  • 261120Z 21008KT 9999 FEW005 SCT008 OVC013 01/M01 Q1032 TEMPO BKN008
  • 261050Z 21008KT 9999 FEW005 SCT007 OVC013 01/M00 Q1032 TEMPO BKN008
  • 261020Z 21007KT 9999 FEW005 SCT009 OVC013 01/M00 Q1033 TEMPO BKN008
  • 260950Z 22006KT 9999 -DZ FEW006 SCT008 OVC013 01/M00 Q1033 TEMPO BKN008
  • 260920Z 21007KT 9999 -DZ SCT008 OVC011 01/M00 Q1032 TEMPO BKN008

TAF TAF EDDF
Valid from the 26 at 12:00 until the 27 at 18:00 UTC


261100Z 2612/2718 23008KT 9999 SCT008 OVC012
BECMG 2612/2615 BKN015
TEMPO 2620/2712 BKN012
PROB40
TEMPO 2623/2709 4000 BR BKN008
BECMG 2706/2709 20013KT
TEMPO 2712/2718 22015G25KT
PROB40
TEMPO 2712/2718 4500 RADZ BKN012



MET'MAP, your aeronautical weather chart ! - Copyright ORBIFLY December 2007 - Disclaimer

ORBIFLY MET'MAP TEAM :

Programming & Development : Alexandra Zaïnal
Original concept : Baudouin d'Aumeries
Technical & hardware support : Manuel Goepfert
Assistance : Marc-Olivier Méhu

Contact : metmap@orbifly.com




SOURCES & CREDITS :

   NOAA